sensor_id;sensor_type;location;lat;lon;timestamp;P1;durP1;ratioP1;P2;durP2;ratioP2
26953;SDS011;14508;50.924;11.600;2022-08-03T00:00:50;2.13;;;1.67;;
26953;SDS011;14508;50.924;11.600;2022-08-03T00:03:17;1.70;;;1.38;;
26953;SDS011;14508;50.924;11.600;2022-08-03T00:05:44;2.13;;;1.67;;
26953;SDS011;14508;50.924;11.600;2022-08-03T00:08:12;1.95;;;1.63;;
26953;SDS011;14508;50.924;11.600;2022-08-03T00:10:39;2.33;;;1.52;;
26953;SDS011;14508;50.924;11.600;2022-08-03T00:13:05;2.42;;;1.70;;
26953;SDS011;14508;50.924;11.600;2022-08-03T00:15:32;2.53;;;1.80;;
26953;SDS011;14508;50.924;11.600;2022-08-03T00:17:59;3.38;;;1.90;;
26953;SDS011;14508;50.924;11.600;2022-08-03T00:20:26;2.72;;;2.22;;
26953;SDS011;14508;50.924;11.600;2022-08-03T00:22:53;1.98;;;1.70;;
26953;SDS011;14508;50.924;11.600;2022-08-03T00:25:21;5.20;;;2.42;;
26953;SDS011;14508;50.924;11.600;2022-08-03T00:27:48;2.17;;;1.90;;
26953;SDS011;14508;50.924;11.600;2022-08-03T00:30:14;2.28;;;1.73;;
26953;SDS011;14508;50.924;11.600;2022-08-03T00:32:41;3.42;;;2.08;;
26953;SDS011;14508;50.924;11.600;2022-08-03T00:35:08;2.53;;;2.10;;
26953;SDS011;14508;50.924;11.600;2022-08-03T00:37:34;2.65;;;2.15;;
26953;SDS011;14508;50.924;11.600;2022-08-03T00:40:02;2.90;;;2.00;;
26953;SDS011;14508;50.924;11.600;2022-08-03T00:42:30;4.28;;;2.35;;
26953;SDS011;14508;50.924;11.600;2022-08-03T00:44:57;2.75;;;2.15;;
26953;SDS011;14508;50.924;11.600;2022-08-03T00:47:23;4.97;;;1.77;;
26953;SDS011;14508;50.924;11.600;2022-08-03T00:49:50;3.40;;;2.20;;
26953;SDS011;14508;50.924;11.600;2022-08-03T00:52:17;2.55;;;1.80;;
26953;SDS011;14508;50.924;11.600;2022-08-03T00:54:43;2.72;;;2.00;;
26953;SDS011;14508;50.924;11.600;2022-08-03T00:57:10;3.03;;;2.08;;
26953;SDS011;14508;50.924;11.600;2022-08-03T00:59:38;7.22;;;2.75;;
26953;SDS011;14508;50.924;11.600;2022-08-03T01:02:05;4.43;;;2.30;;
26953;SDS011;14508;50.924;11.600;2022-08-03T01:04:32;5.30;;;3.10;;
26953;SDS011;14508;50.924;11.600;2022-08-03T01:07:00;8.73;;;2.80;;
26953;SDS011;14508;50.924;11.600;2022-08-03T01:09:34;2.75;;;2.38;;
26953;SDS011;14508;50.924;11.600;2022-08-03T01:12:07;4.50;;;2.65;;
26953;SDS011;14508;50.924;11.600;2022-08-03T01:14:45;2.92;;;2.60;;
26953;SDS011;14508;50.924;11.600;2022-08-03T01:17:18;4.45;;;2.70;;
26953;SDS011;14508;50.924;11.600;2022-08-03T01:19:52;7.32;;;2.38;;
26953;SDS011;14508;50.924;11.600;2022-08-03T01:22:38;3.17;;;2.30;;
26953;SDS011;14508;50.924;11.600;2022-08-03T01:25:20;3.13;;;2.53;;
26953;SDS011;14508;50.924;11.600;2022-08-03T01:28:01;3.92;;;2.40;;
26953;SDS011;14508;50.924;11.600;2022-08-03T01:30:37;5.60;;;2.38;;
26953;SDS011;14508;50.924;11.600;2022-08-03T01:33:08;2.78;;;2.55;;
26953;SDS011;14508;50.924;11.600;2022-08-03T01:35:42;5.38;;;2.30;;
26953;SDS011;14508;50.924;11.600;2022-08-03T01:38:12;3.78;;;2.78;;
26953;SDS011;14508;50.924;11.600;2022-08-03T01:40:43;6.55;;;2.67;;
26953;SDS011;14508;50.924;11.600;2022-08-03T01:43:12;3.75;;;2.42;;
26953;SDS011;14508;50.924;11.600;2022-08-03T01:45:44;5.85;;;2.60;;
26953;SDS011;14508;50.924;11.600;2022-08-03T01:48:11;2.83;;;1.80;;
26953;SDS011;14508;50.924;11.600;2022-08-03T01:50:42;3.65;;;2.38;;
26953;SDS011;14508;50.924;11.600;2022-08-03T01:53:12;2.90;;;2.33;;
26953;SDS011;14508;50.924;11.600;2022-08-03T01:55:40;3.53;;;2.10;;
26953;SDS011;14508;50.924;11.600;2022-08-03T01:58:09;17.77;;;2.53;;
26953;SDS011;14508;50.924;11.600;2022-08-03T02:00:41;3.28;;;2.72;;
26953;SDS011;14508;50.924;11.600;2022-08-03T02:03:12;3.22;;;2.50;;
26953;SDS011;14508;50.924;11.600;2022-08-03T02:05:40;4.30;;;2.90;;
26953;SDS011;14508;50.924;11.600;2022-08-03T02:08:10;3.70;;;2.97;;
26953;SDS011;14508;50.924;11.600;2022-08-03T02:10:38;3.85;;;2.88;;
26953;SDS011;14508;50.924;11.600;2022-08-03T02:13:07;2.80;;;2.10;;
26953;SDS011;14508;50.924;11.600;2022-08-03T02:15:35;5.88;;;2.45;;
26953;SDS011;14508;50.924;11.600;2022-08-03T02:18:05;2.75;;;2.33;;
26953;SDS011;14508;50.924;11.600;2022-08-03T02:20:34;3.30;;;2.60;;
26953;SDS011;14508;50.924;11.600;2022-08-03T02:23:03;3.58;;;2.50;;
26953;SDS011;14508;50.924;11.600;2022-08-03T02:25:31;2.97;;;2.53;;
26953;SDS011;14508;50.924;11.600;2022-08-03T02:28:00;6.60;;;2.88;;
26953;SDS011;14508;50.924;11.600;2022-08-03T02:30:33;3.83;;;2.92;;
26953;SDS011;14508;50.924;11.600;2022-08-03T02:33:02;7.53;;;2.67;;
26953;SDS011;14508;50.924;11.600;2022-08-03T02:35:35;5.22;;;3.28;;
26953;SDS011;14508;50.924;11.600;2022-08-03T02:38:04;4.25;;;2.90;;
26953;SDS011;14508;50.924;11.600;2022-08-03T02:40:33;3.50;;;2.70;;
26953;SDS011;14508;50.924;11.600;2022-08-03T02:43:01;4.43;;;3.03;;
26953;SDS011;14508;50.924;11.600;2022-08-03T02:45:34;11.95;;;3.00;;
26953;SDS011;14508;50.924;11.600;2022-08-03T02:48:02;7.32;;;2.95;;
26953;SDS011;14508;50.924;11.600;2022-08-03T02:50:32;3.85;;;2.80;;
26953;SDS011;14508;50.924;11.600;2022-08-03T02:53:00;3.60;;;2.95;;
26953;SDS011;14508;50.924;11.600;2022-08-03T02:55:27;4.28;;;3.05;;
26953;SDS011;14508;50.924;11.600;2022-08-03T02:57:55;3.80;;;3.17;;
26953;SDS011;14508;50.924;11.600;2022-08-03T03:00:23;4.80;;;3.22;;
26953;SDS011;14508;50.924;11.600;2022-08-03T03:02:50;4.28;;;3.65;;
26953;SDS011;14508;50.924;11.600;2022-08-03T03:05:18;4.57;;;3.20;;
26953;SDS011;14508;50.924;11.600;2022-08-03T03:07:46;5.78;;;3.08;;
26953;SDS011;14508;50.924;11.600;2022-08-03T03:10:14;3.40;;;2.97;;
26953;SDS011;14508;50.924;11.600;2022-08-03T03:12:40;3.55;;;2.85;;
26953;SDS011;14508;50.924;11.600;2022-08-03T03:15:10;6.93;;;3.00;;
26953;SDS011;14508;50.924;11.600;2022-08-03T03:17:37;4.68;;;3.10;;
26953;SDS011;14508;50.924;11.600;2022-08-03T03:20:05;6.22;;;3.70;;
26953;SDS011;14508;50.924;11.600;2022-08-03T03:22:33;7.07;;;3.45;;
26953;SDS011;14508;50.924;11.600;2022-08-03T03:25:02;3.67;;;2.75;;
26953;SDS011;14508;50.924;11.600;2022-08-03T03:27:31;11.30;;;3.88;;
26953;SDS011;14508;50.924;11.600;2022-08-03T03:29:59;9.63;;;2.88;;
26953;SDS011;14508;50.924;11.600;2022-08-03T03:32:26;5.45;;;3.10;;
26953;SDS011;14508;50.924;11.600;2022-08-03T03:34:53;6.93;;;2.67;;
26953;SDS011;14508;50.924;11.600;2022-08-03T03:37:23;4.60;;;2.80;;
26953;SDS011;14508;50.924;11.600;2022-08-03T03:39:51;4.03;;;2.55;;
26953;SDS011;14508;50.924;11.600;2022-08-03T03:42:19;3.00;;;2.53;;
26953;SDS011;14508;50.924;11.600;2022-08-03T03:44:46;8.43;;;2.85;;
26953;SDS011;14508;50.924;11.600;2022-08-03T03:47:13;5.30;;;3.50;;
26953;SDS011;14508;50.924;11.600;2022-08-03T03:49:40;4.53;;;2.40;;
26953;SDS011;14508;50.924;11.600;2022-08-03T03:52:07;5.65;;;3.33;;
26953;SDS011;14508;50.924;11.600;2022-08-03T03:54:38;3.70;;;2.80;;
26953;SDS011;14508;50.924;11.600;2022-08-03T03:57:06;5.55;;;2.75;;
26953;SDS011;14508;50.924;11.600;2022-08-03T03:59:37;6.85;;;4.07;;
26953;SDS011;14508;50.924;11.600;2022-08-03T04:02:04;4.93;;;3.45;;
26953;SDS011;14508;50.924;11.600;2022-08-03T04:04:32;5.90;;;3.53;;
26953;SDS011;14508;50.924;11.600;2022-08-03T04:07:16;5.90;;;3.88;;
26953;SDS011;14508;50.924;11.600;2022-08-03T04:12:59;9.35;;;4.32;;
26953;SDS011;14508;50.924;11.600;2022-08-03T04:15:30;11.73;;;4.72;;
26953;SDS011;14508;50.924;11.600;2022-08-03T04:17:58;13.88;;;4.05;;
26953;SDS011;14508;50.924;11.600;2022-08-03T04:20:28;12.35;;;4.50;;
26953;SDS011;14508;50.924;11.600;2022-08-03T04:22:57;7.78;;;4.47;;
26953;SDS011;14508;50.924;11.600;2022-08-03T04:25:26;9.80;;;4.95;;
26953;SDS011;14508;50.924;11.600;2022-08-03T04:27:56;10.68;;;4.60;;
26953;SDS011;14508;50.924;11.600;2022-08-03T04:30:24;9.40;;;4.13;;
26953;SDS011;14508;50.924;11.600;2022-08-03T04:32:54;9.32;;;4.38;;
26953;SDS011;14508;50.924;11.600;2022-08-03T04:35:22;8.02;;;4.57;;
26953;SDS011;14508;50.924;11.600;2022-08-03T04:37:50;5.18;;;3.72;;
26953;SDS011;14508;50.924;11.600;2022-08-03T04:40:21;6.63;;;4.07;;
26953;SDS011;14508;50.924;11.600;2022-08-03T04:42:52;9.38;;;4.13;;
26953;SDS011;14508;50.924;11.600;2022-08-03T04:45:21;6.07;;;4.20;;
26953;SDS011;14508;50.924;11.600;2022-08-03T04:47:49;5.53;;;4.20;;
26953;SDS011;14508;50.924;11.600;2022-08-03T04:50:18;7.97;;;4.28;;
26953;SDS011;14508;50.924;11.600;2022-08-03T04:53:02;5.97;;;4.22;;
26953;SDS011;14508;50.924;11.600;2022-08-03T04:55:30;8.25;;;4.53;;
26953;SDS011;14508;50.924;11.600;2022-08-03T04:57:58;7.15;;;4.20;;
26953;SDS011;14508;50.924;11.600;2022-08-03T05:00:26;9.00;;;5.07;;
26953;SDS011;14508;50.924;11.600;2022-08-03T05:02:53;7.53;;;3.97;;
26953;SDS011;14508;50.924;11.600;2022-08-03T05:05:22;5.55;;;3.80;;
26953;SDS011;14508;50.924;11.600;2022-08-03T05:07:49;8.07;;;4.25;;
26953;SDS011;14508;50.924;11.600;2022-08-03T05:10:16;6.40;;;3.95;;
26953;SDS011;14508;50.924;11.600;2022-08-03T05:12:43;7.80;;;4.28;;
26953;SDS011;14508;50.924;11.600;2022-08-03T05:15:11;8.15;;;4.65;;
26953;SDS011;14508;50.924;11.600;2022-08-03T05:17:38;11.50;;;4.32;;
26953;SDS011;14508;50.924;11.600;2022-08-03T05:20:05;8.77;;;4.22;;
26953;SDS011;14508;50.924;11.600;2022-08-03T05:22:34;13.68;;;4.93;;
26953;SDS011;14508;50.924;11.600;2022-08-03T05:25:00;7.43;;;6.10;;
26953;SDS011;14508;50.924;11.600;2022-08-03T05:27:27;7.50;;;5.25;;
26953;SDS011;14508;50.924;11.600;2022-08-03T05:29:54;10.10;;;5.38;;
26953;SDS011;14508;50.924;11.600;2022-08-03T05:32:21;6.45;;;4.63;;
26953;SDS011;14508;50.924;11.600;2022-08-03T05:34:47;15.63;;;4.50;;
26953;SDS011;14508;50.924;11.600;2022-08-03T05:37:14;9.15;;;4.15;;
26953;SDS011;14508;50.924;11.600;2022-08-03T05:39:42;9.68;;;4.47;;
26953;SDS011;14508;50.924;11.600;2022-08-03T05:42:09;10.65;;;4.95;;
26953;SDS011;14508;50.924;11.600;2022-08-03T05:44:36;9.73;;;4.93;;
26953;SDS011;14508;50.924;11.600;2022-08-03T05:47:03;10.73;;;4.55;;
26953;SDS011;14508;50.924;11.600;2022-08-03T05:49:30;8.52;;;4.20;;
26953;SDS011;14508;50.924;11.600;2022-08-03T05:51:56;6.75;;;3.92;;
26953;SDS011;14508;50.924;11.600;2022-08-03T05:54:23;8.30;;;4.18;;
26953;SDS011;14508;50.924;11.600;2022-08-03T05:56:51;8.02;;;3.80;;
26953;SDS011;14508;50.924;11.600;2022-08-03T05:59:18;7.82;;;3.85;;
26953;SDS011;14508;50.924;11.600;2022-08-03T06:01:45;5.80;;;3.70;;
26953;SDS011;14508;50.924;11.600;2022-08-03T06:04:12;8.20;;;4.22;;
26953;SDS011;14508;50.924;11.600;2022-08-03T06:06:39;8.35;;;4.32;;
26953;SDS011;14508;50.924;11.600;2022-08-03T06:09:06;5.47;;;3.92;;
26953;SDS011;14508;50.924;11.600;2022-08-03T06:11:34;5.35;;;3.08;;
26953;SDS011;14508;50.924;11.600;2022-08-03T06:14:02;12.07;;;4.32;;
26953;SDS011;14508;50.924;11.600;2022-08-03T06:16:29;5.45;;;3.60;;
26953;SDS011;14508;50.924;11.600;2022-08-03T06:18:56;7.68;;;3.75;;
26953;SDS011;14508;50.924;11.600;2022-08-03T06:21:23;15.23;;;4.18;;
26953;SDS011;14508;50.924;11.600;2022-08-03T06:23:49;6.18;;;3.67;;
26953;SDS011;14508;50.924;11.600;2022-08-03T06:26:16;9.27;;;3.90;;
26953;SDS011;14508;50.924;11.600;2022-08-03T06:28:43;8.88;;;3.47;;
26953;SDS011;14508;50.924;11.600;2022-08-03T06:31:11;6.95;;;3.45;;
26953;SDS011;14508;50.924;11.600;2022-08-03T06:33:38;10.60;;;3.50;;
26953;SDS011;14508;50.924;11.600;2022-08-03T06:36:04;29.77;;;5.13;;
26953;SDS011;14508;50.924;11.600;2022-08-03T06:38:31;6.30;;;3.58;;
26953;SDS011;14508;50.924;11.600;2022-08-03T06:40:58;5.05;;;3.50;;
26953;SDS011;14508;50.924;11.600;2022-08-03T06:43:25;6.90;;;3.72;;
26953;SDS011;14508;50.924;11.600;2022-08-03T06:45:52;4.28;;;3.50;;
26953;SDS011;14508;50.924;11.600;2022-08-03T06:48:20;6.40;;;3.80;;
26953;SDS011;14508;50.924;11.600;2022-08-03T06:50:47;7.10;;;3.80;;
26953;SDS011;14508;50.924;11.600;2022-08-03T06:53:13;83.90;;;6.88;;
26953;SDS011;14508;50.924;11.600;2022-08-03T06:55:40;9.98;;;3.72;;
26953;SDS011;14508;50.924;11.600;2022-08-03T06:58:07;6.68;;;3.72;;
26953;SDS011;14508;50.924;11.600;2022-08-03T07:00:34;7.32;;;3.50;;
26953;SDS011;14508;50.924;11.600;2022-08-03T07:03:01;6.00;;;3.75;;
26953;SDS011;14508;50.924;11.600;2022-08-03T07:05:29;7.40;;;3.00;;
26953;SDS011;14508;50.924;11.600;2022-08-03T07:07:57;12.23;;;3.75;;
26953;SDS011;14508;50.924;11.600;2022-08-03T07:10:25;4.70;;;3.08;;
26953;SDS011;14508;50.924;11.600;2022-08-03T07:12:53;6.47;;;3.60;;
26953;SDS011;14508;50.924;11.600;2022-08-03T07:15:20;5.32;;;3.30;;
26953;SDS011;14508;50.924;11.600;2022-08-03T07:17:47;9.25;;;3.53;;
26953;SDS011;14508;50.924;11.600;2022-08-03T07:20:14;5.97;;;4.05;;
26953;SDS011;14508;50.924;11.600;2022-08-03T07:22:43;5.22;;;3.50;;
26953;SDS011;14508;50.924;11.600;2022-08-03T07:25:10;4.75;;;3.00;;
26953;SDS011;14508;50.924;11.600;2022-08-03T07:27:37;6.13;;;3.78;;
26953;SDS011;14508;50.924;11.600;2022-08-03T07:30:04;13.98;;;3.65;;
26953;SDS011;14508;50.924;11.600;2022-08-03T07:32:32;12.77;;;3.67;;
26953;SDS011;14508;50.924;11.600;2022-08-03T07:34:59;7.13;;;3.80;;
26953;SDS011;14508;50.924;11.600;2022-08-03T07:37:26;16.45;;;3.97;;
26953;SDS011;14508;50.924;11.600;2022-08-03T07:39:55;31.42;;;5.35;;
26953;SDS011;14508;50.924;11.600;2022-08-03T07:42:21;11.90;;;3.97;;
26953;SDS011;14508;50.924;11.600;2022-08-03T07:44:48;6.10;;;3.22;;
26953;SDS011;14508;50.924;11.600;2022-08-03T07:47:17;5.10;;;3.00;;
26953;SDS011;14508;50.924;11.600;2022-08-03T07:49:44;10.07;;;3.25;;
26953;SDS011;14508;50.924;11.600;2022-08-03T07:52:11;8.10;;;3.97;;
26953;SDS011;14508;50.924;11.600;2022-08-03T07:54:56;7.68;;;3.60;;
26953;SDS011;14508;50.924;11.600;2022-08-03T07:57:23;5.93;;;2.88;;
26953;SDS011;14508;50.924;11.600;2022-08-03T07:59:50;5.00;;;3.03;;
26953;SDS011;14508;50.924;11.600;2022-08-03T08:02:16;8.32;;;3.00;;
26953;SDS011;14508;50.924;11.600;2022-08-03T08:04:43;10.75;;;3.33;;
26953;SDS011;14508;50.924;11.600;2022-08-03T08:07:10;6.03;;;3.47;;
26953;SDS011;14508;50.924;11.600;2022-08-03T08:09:37;4.68;;;3.40;;
26953;SDS011;14508;50.924;11.600;2022-08-03T08:12:05;6.50;;;3.92;;
26953;SDS011;14508;50.924;11.600;2022-08-03T08:14:32;4.65;;;3.38;;
26953;SDS011;14508;50.924;11.600;2022-08-03T08:16:59;7.18;;;3.17;;
26953;SDS011;14508;50.924;11.600;2022-08-03T08:19:26;7.00;;;2.92;;
26953;SDS011;14508;50.924;11.600;2022-08-03T08:21:53;6.55;;;2.80;;
26953;SDS011;14508;50.924;11.600;2022-08-03T08:24:20;8.45;;;2.40;;
26953;SDS011;14508;50.924;11.600;2022-08-03T08:26:47;4.38;;;2.78;;
26953;SDS011;14508;50.924;11.600;2022-08-03T08:29:15;7.72;;;2.35;;
26953;SDS011;14508;50.924;11.600;2022-08-03T08:31:42;3.47;;;2.63;;
26953;SDS011;14508;50.924;11.600;2022-08-03T08:34:09;5.38;;;2.60;;
26953;SDS011;14508;50.924;11.600;2022-08-03T08:36:35;27.45;;;3.58;;
26953;SDS011;14508;50.924;11.600;2022-08-03T08:39:02;6.63;;;2.38;;
26953;SDS011;14508;50.924;11.600;2022-08-03T08:41:29;3.67;;;2.33;;
26953;SDS011;14508;50.924;11.600;2022-08-03T08:43:58;2.33;;;2.00;;
26953;SDS011;14508;50.924;11.600;2022-08-03T08:46:26;5.00;;;1.95;;
26953;SDS011;14508;50.924;11.600;2022-08-03T08:48:56;2.85;;;2.35;;
26953;SDS011;14508;50.924;11.600;2022-08-03T08:51:26;7.03;;;2.33;;
26953;SDS011;14508;50.924;11.600;2022-08-03T08:53:55;8.30;;;2.42;;
26953;SDS011;14508;50.924;11.600;2022-08-03T08:56:26;4.70;;;1.92;;
26953;SDS011;14508;50.924;11.600;2022-08-03T08:58:57;4.35;;;1.65;;
26953;SDS011;14508;50.924;11.600;2022-08-03T09:01:25;5.22;;;1.77;;
26953;SDS011;14508;50.924;11.600;2022-08-03T09:03:53;9.20;;;1.75;;
26953;SDS011;14508;50.924;11.600;2022-08-03T09:06:20;5.40;;;1.80;;
26953;SDS011;14508;50.924;11.600;2022-08-03T09:08:47;4.32;;;1.77;;
26953;SDS011;14508;50.924;11.600;2022-08-03T09:11:14;8.07;;;2.42;;
26953;SDS011;14508;50.924;11.600;2022-08-03T09:13:41;2.92;;;1.65;;
26953;SDS011;14508;50.924;11.600;2022-08-03T09:16:11;2.08;;;1.23;;
26953;SDS011;14508;50.924;11.600;2022-08-03T09:18:41;3.95;;;1.83;;
26953;SDS011;14508;50.924;11.600;2022-08-03T09:21:13;3.00;;;1.60;;
26953;SDS011;14508;50.924;11.600;2022-08-03T09:23:44;4.35;;;1.88;;
26953;SDS011;14508;50.924;11.600;2022-08-03T09:26:12;6.32;;;2.15;;
26953;SDS011;14508;50.924;11.600;2022-08-03T09:28:46;4.00;;;1.80;;
26953;SDS011;14508;50.924;11.600;2022-08-03T09:31:18;1.75;;;1.50;;
26953;SDS011;14508;50.924;11.600;2022-08-03T09:33:47;1.73;;;1.58;;
26953;SDS011;14508;50.924;11.600;2022-08-03T09:39:00;4.13;;;1.83;;
26953;SDS011;14508;50.924;11.600;2022-08-03T09:41:28;2.88;;;1.95;;
26953;SDS011;14508;50.924;11.600;2022-08-03T09:43:55;5.40;;;1.80;;
26953;SDS011;14508;50.924;11.600;2022-08-03T09:46:22;7.10;;;1.65;;
26953;SDS011;14508;50.924;11.600;2022-08-03T09:48:50;2.55;;;2.30;;
26953;SDS011;14508;50.924;11.600;2022-08-03T09:51:19;3.88;;;1.67;;
26953;SDS011;14508;50.924;11.600;2022-08-03T09:53:50;5.30;;;1.75;;
26953;SDS011;14508;50.924;11.600;2022-08-03T09:56:17;3.08;;;1.50;;
26953;SDS011;14508;50.924;11.600;2022-08-03T09:58:44;6.57;;;2.55;;
26953;SDS011;14508;50.924;11.600;2022-08-03T10:01:11;3.88;;;2.05;;
26953;SDS011;14508;50.924;11.600;2022-08-03T10:03:38;2.60;;;1.40;;
26953;SDS011;14508;50.924;11.600;2022-08-03T10:06:14;2.38;;;1.67;;
26953;SDS011;14508;50.924;11.600;2022-08-03T10:08:44;1.73;;;1.60;;
26953;SDS011;14508;50.924;11.600;2022-08-03T10:11:10;3.17;;;1.52;;
26953;SDS011;14508;50.924;11.600;2022-08-03T10:13:37;2.67;;;1.48;;
26953;SDS011;14508;50.924;11.600;2022-08-03T10:16:05;4.20;;;1.92;;
26953;SDS011;14508;50.924;11.600;2022-08-03T10:18:32;1.77;;;1.38;;
26953;SDS011;14508;50.924;11.600;2022-08-03T10:21:01;2.03;;;1.50;;
26953;SDS011;14508;50.924;11.600;2022-08-03T10:23:33;4.20;;;1.80;;
26953;SDS011;14508;50.924;11.600;2022-08-03T10:26:01;1.75;;;1.65;;
26953;SDS011;14508;50.924;11.600;2022-08-03T10:28:32;2.95;;;1.45;;
26953;SDS011;14508;50.924;11.600;2022-08-03T10:31:00;2.75;;;1.90;;
26953;SDS011;14508;50.924;11.600;2022-08-03T10:33:33;2.00;;;1.67;;
26953;SDS011;14508;50.924;11.600;2022-08-03T10:36:03;3.78;;;2.03;;
26953;SDS011;14508;50.924;11.600;2022-08-03T10:38:34;4.38;;;1.55;;
26953;SDS011;14508;50.924;11.600;2022-08-03T10:41:05;5.20;;;1.90;;
26953;SDS011;14508;50.924;11.600;2022-08-03T10:43:35;2.10;;;1.90;;
26953;SDS011;14508;50.924;11.600;2022-08-03T10:46:07;5.50;;;1.73;;
26953;SDS011;14508;50.924;11.600;2022-08-03T10:48:34;3.25;;;1.60;;
26953;SDS011;14508;50.924;11.600;2022-08-03T10:51:01;7.70;;;2.25;;
26953;SDS011;14508;50.924;11.600;2022-08-03T10:53:35;5.68;;;1.90;;
26953;SDS011;14508;50.924;11.600;2022-08-03T10:56:03;3.70;;;1.60;;
26953;SDS011;14508;50.924;11.600;2022-08-03T10:59:02;4.57;;;2.20;;
26953;SDS011;14508;50.924;11.600;2022-08-03T11:04:18;6.45;;;2.30;;
26953;SDS011;14508;50.924;11.600;2022-08-03T11:06:54;15.63;;;2.22;;
26953;SDS011;14508;50.924;11.600;2022-08-03T11:09:46;2.05;;;1.50;;
26953;SDS011;14508;50.924;11.600;2022-08-03T11:12:20;8.18;;;2.15;;
26953;SDS011;14508;50.924;11.600;2022-08-03T11:14:48;5.53;;;1.85;;
26953;SDS011;14508;50.924;11.600;2022-08-03T11:17:15;3.15;;;1.85;;
26953;SDS011;14508;50.924;11.600;2022-08-03T11:19:44;5.88;;;1.92;;
26953;SDS011;14508;50.924;11.600;2022-08-03T11:22:11;2.30;;;1.80;;
26953;SDS011;14508;50.924;11.600;2022-08-03T11:24:59;1.88;;;1.70;;
26953;SDS011;14508;50.924;11.600;2022-08-03T11:27:27;3.70;;;2.03;;
26953;SDS011;14508;50.924;11.600;2022-08-03T11:29:56;3.78;;;1.98;;
26953;SDS011;14508;50.924;11.600;2022-08-03T11:35:17;6.57;;;1.80;;
26953;SDS011;14508;50.924;11.600;2022-08-03T11:38:01;2.97;;;2.10;;
26953;SDS011;14508;50.924;11.600;2022-08-03T11:40:36;5.75;;;1.90;;
26953;SDS011;14508;50.924;11.600;2022-08-03T11:43:05;3.60;;;1.80;;
26953;SDS011;14508;50.924;11.600;2022-08-03T11:45:33;2.25;;;1.70;;
26953;SDS011;14508;50.924;11.600;2022-08-03T11:48:02;12.55;;;2.15;;
26953;SDS011;14508;50.924;11.600;2022-08-03T11:50:41;6.90;;;2.22;;
26953;SDS011;14508;50.924;11.600;2022-08-03T11:53:12;2.70;;;1.70;;
26953;SDS011;14508;50.924;11.600;2022-08-03T11:55:42;3.63;;;1.88;;
26953;SDS011;14508;50.924;11.600;2022-08-03T11:58:19;2.30;;;2.08;;
26953;SDS011;14508;50.924;11.600;2022-08-03T12:00:47;6.88;;;2.40;;
26953;SDS011;14508;50.924;11.600;2022-08-03T12:03:15;4.55;;;2.20;;
26953;SDS011;14508;50.924;11.600;2022-08-03T12:05:45;2.10;;;1.90;;
26953;SDS011;14508;50.924;11.600;2022-08-03T12:08:13;4.38;;;2.80;;
26953;SDS011;14508;50.924;11.600;2022-08-03T12:10:47;2.47;;;1.90;;
26953;SDS011;14508;50.924;11.600;2022-08-03T12:13:16;6.90;;;2.60;;
26953;SDS011;14508;50.924;11.600;2022-08-03T12:15:49;4.55;;;1.90;;
26953;SDS011;14508;50.924;11.600;2022-08-03T12:18:17;5.82;;;2.10;;
26953;SDS011;14508;50.924;11.600;2022-08-03T12:20:46;23.63;;;3.10;;
26953;SDS011;14508;50.924;11.600;2022-08-03T12:23:14;7.80;;;1.63;;
26953;SDS011;14508;50.924;11.600;2022-08-03T12:25:42;2.70;;;2.20;;
26953;SDS011;14508;50.924;11.600;2022-08-03T12:28:13;4.28;;;2.10;;
26953;SDS011;14508;50.924;11.600;2022-08-03T12:30:43;3.65;;;2.17;;
26953;SDS011;14508;50.924;11.600;2022-08-03T12:33:12;2.08;;;1.77;;
26953;SDS011;14508;50.924;11.600;2022-08-03T12:35:44;5.95;;;1.98;;
26953;SDS011;14508;50.924;11.600;2022-08-03T12:38:12;3.58;;;1.63;;
26953;SDS011;14508;50.924;11.600;2022-08-03T12:40:44;2.80;;;1.85;;
26953;SDS011;14508;50.924;11.600;2022-08-03T12:43:13;2.45;;;2.05;;
26953;SDS011;14508;50.924;11.600;2022-08-03T12:45:40;3.55;;;1.92;;
26953;SDS011;14508;50.924;11.600;2022-08-03T12:48:08;4.55;;;1.73;;
26953;SDS011;14508;50.924;11.600;2022-08-03T12:50:37;5.15;;;1.70;;
26953;SDS011;14508;50.924;11.600;2022-08-03T12:53:07;2.25;;;1.75;;
26953;SDS011;14508;50.924;11.600;2022-08-03T12:55:35;2.00;;;1.60;;
26953;SDS011;14508;50.924;11.600;2022-08-03T12:58:03;5.80;;;1.85;;
26953;SDS011;14508;50.924;11.600;2022-08-03T13:00:32;4.95;;;2.03;;
26953;SDS011;14508;50.924;11.600;2022-08-03T13:03:00;3.95;;;1.63;;
26953;SDS011;14508;50.924;11.600;2022-08-03T13:05:28;4.68;;;1.80;;
26953;SDS011;14508;50.924;11.600;2022-08-03T13:07:55;3.67;;;2.22;;
26953;SDS011;14508;50.924;11.600;2022-08-03T13:10:28;1.50;;;1.40;;
26953;SDS011;14508;50.924;11.600;2022-08-03T13:12:56;6.20;;;1.97;;
26953;SDS011;14508;50.924;11.600;2022-08-03T13:15:24;7.13;;;2.25;;
26953;SDS011;14508;50.924;11.600;2022-08-03T13:17:55;4.15;;;1.83;;
26953;SDS011;14508;50.924;11.600;2022-08-03T13:20:22;6.63;;;2.05;;
26953;SDS011;14508;50.924;11.600;2022-08-03T13:22:50;3.22;;;1.73;;
26953;SDS011;14508;50.924;11.600;2022-08-03T13:25:16;2.67;;;1.60;;
26953;SDS011;14508;50.924;11.600;2022-08-03T13:27:44;5.68;;;2.05;;
26953;SDS011;14508;50.924;11.600;2022-08-03T13:30:11;2.17;;;1.83;;
26953;SDS011;14508;50.924;11.600;2022-08-03T13:32:38;4.25;;;1.88;;
26953;SDS011;14508;50.924;11.600;2022-08-03T13:35:07;2.00;;;1.70;;
26953;SDS011;14508;50.924;11.600;2022-08-03T13:37:35;2.80;;;1.80;;
26953;SDS011;14508;50.924;11.600;2022-08-03T13:40:03;3.00;;;1.80;;
26953;SDS011;14508;50.924;11.600;2022-08-03T13:42:32;1.60;;;1.50;;
26953;SDS011;14508;50.924;11.600;2022-08-03T13:45:01;1.60;;;1.50;;
26953;SDS011;14508;50.924;11.600;2022-08-03T13:47:29;3.33;;;1.73;;
26953;SDS011;14508;50.924;11.600;2022-08-03T13:49:56;7.97;;;2.05;;
26953;SDS011;14508;50.924;11.600;2022-08-03T13:52:24;1.58;;;1.48;;
26953;SDS011;14508;50.924;11.600;2022-08-03T13:54:51;1.95;;;1.75;;
26953;SDS011;14508;50.924;11.600;2022-08-03T13:57:18;1.70;;;1.60;;
26953;SDS011;14508;50.924;11.600;2022-08-03T13:59:44;5.30;;;1.95;;
26953;SDS011;14508;50.924;11.600;2022-08-03T14:02:11;7.40;;;1.85;;
26953;SDS011;14508;50.924;11.600;2022-08-03T14:04:38;1.92;;;1.65;;
26953;SDS011;14508;50.924;11.600;2022-08-03T14:07:06;7.90;;;3.05;;
26953;SDS011;14508;50.924;11.600;2022-08-03T14:09:34;1.75;;;1.65;;
26953;SDS011;14508;50.924;11.600;2022-08-03T14:12:01;1.75;;;1.65;;
26953;SDS011;14508;50.924;11.600;2022-08-03T14:14:28;2.40;;;1.83;;
26953;SDS011;14508;50.924;11.600;2022-08-03T14:16:55;2.13;;;1.85;;
26953;SDS011;14508;50.924;11.600;2022-08-03T14:19:21;3.88;;;1.60;;
26953;SDS011;14508;50.924;11.600;2022-08-03T14:21:48;3.67;;;2.15;;
26953;SDS011;14508;50.924;11.600;2022-08-03T14:24:15;3.58;;;1.88;;
26953;SDS011;14508;50.924;11.600;2022-08-03T14:26:43;4.38;;;1.83;;
26953;SDS011;14508;50.924;11.600;2022-08-03T14:29:09;2.00;;;1.80;;
26953;SDS011;14508;50.924;11.600;2022-08-03T14:31:36;3.47;;;1.73;;
26953;SDS011;14508;50.924;11.600;2022-08-03T14:34:03;4.65;;;2.00;;
26953;SDS011;14508;50.924;11.600;2022-08-03T14:36:30;3.22;;;1.88;;
26953;SDS011;14508;50.924;11.600;2022-08-03T14:38:56;2.00;;;1.80;;
26953;SDS011;14508;50.924;11.600;2022-08-03T14:41:23;1.67;;;1.58;;
26953;SDS011;14508;50.924;11.600;2022-08-03T14:43:51;1.63;;;1.50;;
26953;SDS011;14508;50.924;11.600;2022-08-03T14:46:19;4.18;;;1.90;;
26953;SDS011;14508;50.924;11.600;2022-08-03T14:48:45;5.57;;;1.70;;
26953;SDS011;14508;50.924;11.600;2022-08-03T14:51:12;2.50;;;1.50;;
26953;SDS011;14508;50.924;11.600;2022-08-03T14:53:39;4.05;;;1.67;;